Aviation Digital Data Service (ADDS)

Output produced by METARs form (2011 UTC 20 August 2019)
found at http://www.aviationweather.gov/metar/data/
 
METAR text: YMHB 202000Z 27008KT 9999 FEW026 SCT050 07/01 Q0999 RF00.0/003.8
Conditions at: YMHB (HOBART/TASMANIA , AU) observed 2000 UTC 20 August 2019
Temperature: 7.0°C (45°F)
Dewpoint: 1.0°C (34°F) [RH = 66%]
Pressure (altimeter): 29.50 inches Hg (999.0 mb)
Winds: from the W (270 degrees) at 9 MPH (8 knots; 4.1 m/s)
Visibility: 6 or more miles (10+ km)
Ceiling: at least 12,000 feet AGL
Clouds: few clouds at 2600 feet AGL
scattered clouds at 5000 feet AGL
Weather: no significant weather observed at this time

METAR text: YMHB 201930Z 26014KT 9999 VCSH FEW032 SCT046 07/02 Q0999 RF00.0/003.8
Conditions at: YMHB (HOBART/TASMANIA , AU) observed 1930 UTC 20 August 2019
Temperature: 7.0°C (45°F)
Dewpoint: 2.0°C (36°F) [RH = 70%]
Pressure (altimeter): 29.50 inches Hg (999.0 mb)
Winds: from the W (260 degrees) at 16 MPH (14 knots; 7.2 m/s)
Visibility: 6 or more miles (10+ km)
Ceiling: at least 12,000 feet AGL
Clouds: few clouds at 3200 feet AGL
scattered clouds at 4600 feet AGL
Weather: VCSH  (showers in vicinity)

METAR text: YMHB 201900Z 25023G33KT 9999 -SHRA FEW024 SCT031 BKN050 08/02 Q0999
Conditions at: YMHB (HOBART/TASMANIA , AU) observed 1900 UTC 20 August 2019
Temperature: 8.0°C (46°F)
Dewpoint: 2.0°C (36°F) [RH = 66%]
Pressure (altimeter): 29.50 inches Hg (999.0 mb)
Winds: from the WSW (250 degrees) at 26 MPH (23 knots; 11.8 m/s)
gusting to 38 MPH (33 knots; 17.0 m/s)
Visibility: 6 or more miles (10+ km)
Ceiling: 5000 feet AGL
Clouds: few clouds at 2400 feet AGL
scattered clouds at 3100 feet AGL
broken clouds at 5000 feet AGL
Weather: -SHRA  (light rain showers)

METAR text: YMHB 201853Z 24022G32KT 9999 -SHRA FEW024 SCT031 BKN046 08/02 Q0999
Conditions at: YMHB (HOBART/TASMANIA , AU) observed 1853 UTC 20 August 2019
Temperature: 8.0°C (46°F)
Dewpoint: 2.0°C (36°F) [RH = 66%]
Pressure (altimeter): 29.50 inches Hg (999.0 mb)
Winds: from the WSW (240 degrees) at 25 MPH (22 knots; 11.3 m/s)
gusting to 37 MPH (32 knots; 16.5 m/s)
Visibility: 6 or more miles (10+ km)
Ceiling: 4600 feet AGL
Clouds: few clouds at 2400 feet AGL
scattered clouds at 3100 feet AGL
broken clouds at 4600 feet AGL
Weather: -SHRA  (light rain showers)

METAR text: YMHB 201848Z AUTO 24024KT 9999 -SHRA SCT031 SCT039 BKN047 08/02 Q0999
Conditions at: YMHB (HOBART/TASMANIA , AU) observed 1848 UTC 20 August 2019
Temperature: 8.0°C (46°F)
Dewpoint: 2.0°C (36°F) [RH = 66%]
Pressure (altimeter): 29.50 inches Hg (999.0 mb)
Winds: from the WSW (240 degrees) at 28 MPH (24 knots; 12.3 m/s)
Visibility: 6 or more miles (10+ km)
Ceiling: 4700 feet AGL
Clouds: scattered clouds at 3100 feet AGL
scattered clouds at 3900 feet AGL
broken clouds at 4700 feet AGL
Weather: -SHRA  (light rain showers)

METAR text: YMHB 201840Z AUTO 27016G28KT 9999 -SHRA SCT023 SCT036 BKN046 09/02 Q0998
Conditions at: YMHB (HOBART/TASMANIA , AU) observed 1840 UTC 20 August 2019
Temperature: 9.0°C (48°F)
Dewpoint: 2.0°C (36°F) [RH = 61%]
Pressure (altimeter): 29.47 inches Hg (998.0 mb)
Winds: from the W (270 degrees) at 18 MPH (16 knots; 8.2 m/s)
gusting to 32 MPH (28 knots; 14.4 m/s)
Visibility: 6 or more miles (10+ km)
Ceiling: 4600 feet AGL
Clouds: scattered clouds at 2300 feet AGL
scattered clouds at 3600 feet AGL
broken clouds at 4600 feet AGL
Weather: -SHRA  (light rain showers)

METAR text: YMHB 201830Z 27019KT 9999 -SHRA FEW029 SCT051 BKN100 08/02 Q0998
Conditions at: YMHB (HOBART/TASMANIA , AU) observed 1830 UTC 20 August 2019
Temperature: 8.0°C (46°F)
Dewpoint: 2.0°C (36°F) [RH = 66%]
Pressure (altimeter): 29.47 inches Hg (998.0 mb)
Winds: from the W (270 degrees) at 22 MPH (19 knots; 9.8 m/s)
Visibility: 6 or more miles (10+ km)
Ceiling: 10000 feet AGL
Clouds: few clouds at 2900 feet AGL
scattered clouds at 5100 feet AGL
broken clouds at 10000 feet AGL
Weather: -SHRA  (light rain showers)

METAR text: YMHB 201820Z 27026G36KT 9999 -SHRA FEW020 SCT028 BKN059 09/02 Q0998
Conditions at: YMHB (HOBART/TASMANIA , AU) observed 1820 UTC 20 August 2019
Temperature: 9.0°C (48°F)
Dewpoint: 2.0°C (36°F) [RH = 61%]
Pressure (altimeter): 29.47 inches Hg (998.0 mb)
Winds: from the W (270 degrees) at 30 MPH (26 knots; 13.4 m/s)
gusting to 41 MPH (36 knots; 18.5 m/s)
Visibility: 6 or more miles (10+ km)
Ceiling: 5900 feet AGL
Clouds: few clouds at 2000 feet AGL
scattered clouds at 2800 feet AGL
broken clouds at 5900 feet AGL
Weather: -SHRA  (light rain showers)

METAR text: YMHB 201814Z 27028KT 9999 -SHRA FEW022 SCT032 BKN100 09/02 Q0998
Conditions at: YMHB (HOBART/TASMANIA , AU) observed 1814 UTC 20 August 2019
Temperature: 9.0°C (48°F)
Dewpoint: 2.0°C (36°F) [RH = 61%]
Pressure (altimeter): 29.47 inches Hg (998.0 mb)
Winds: from the W (270 degrees) at 32 MPH (28 knots; 14.4 m/s)
Visibility: 6 or more miles (10+ km)
Ceiling: 10000 feet AGL
Clouds: few clouds at 2200 feet AGL
scattered clouds at 3200 feet AGL
broken clouds at 10000 feet AGL
Weather: -SHRA  (light rain showers)

METAR text: YMHB 201811Z 28016G26KT 9999 -SHRA FEW022 SCT032 BKN100 09/01 Q0998
Conditions at: YMHB (HOBART/TASMANIA , AU) observed 1811 UTC 20 August 2019
Temperature: 9.0°C (48°F)
Dewpoint: 1.0°C (34°F) [RH = 57%]
Pressure (altimeter): 29.47 inches Hg (998.0 mb)
Winds: from the W (280 degrees) at 18 MPH (16 knots; 8.2 m/s)
gusting to 30 MPH (26 knots; 13.4 m/s)
Visibility: 6 or more miles (10+ km)
Ceiling: 10000 feet AGL
Clouds: few clouds at 2200 feet AGL
scattered clouds at 3200 feet AGL
broken clouds at 10000 feet AGL
Weather: -SHRA  (light rain showers)

METAR text: YMHB 201800Z 28018KT 9999 -SHRA FEW032 SCT057 BKN105 09/01 Q0998
Conditions at: YMHB (HOBART/TASMANIA , AU) observed 1800 UTC 20 August 2019
Temperature: 9.0°C (48°F)
Dewpoint: 1.0°C (34°F) [RH = 57%]
Pressure (altimeter): 29.47 inches Hg (998.0 mb)
Winds: from the W (280 degrees) at 21 MPH (18 knots; 9.3 m/s)
Visibility: 6 or more miles (10+ km)
Ceiling: 10500 feet AGL
Clouds: few clouds at 3200 feet AGL
scattered clouds at 5700 feet AGL
broken clouds at 10500 feet AGL
Weather: -SHRA  (light rain showers)

METAR text: YMHB 201743Z 28015G30KT 9999 -SHRA FEW022 SCT032 BKN060 09/02 Q0998
Conditions at: YMHB (HOBART/TASMANIA , AU) observed 1743 UTC 20 August 2019
Temperature: 9.0°C (48°F)
Dewpoint: 2.0°C (36°F) [RH = 61%]
Pressure (altimeter): 29.47 inches Hg (998.0 mb)
Winds: from the W (280 degrees) at 17 MPH (15 knots; 7.7 m/s)
gusting to 34 MPH (30 knots; 15.4 m/s)
Visibility: 6 or more miles (10+ km)
Ceiling: 6000 feet AGL
Clouds: few clouds at 2200 feet AGL
scattered clouds at 3200 feet AGL
broken clouds at 6000 feet AGL
Weather: -SHRA  (light rain showers)

METAR text: YMHB 201730Z 29010KT 9999 -SHRA SCT027 BKN095 08/03 Q0998 RF00.0/002.8
Conditions at: YMHB (HOBART/TASMANIA , AU) observed 1730 UTC 20 August 2019
Temperature: 8.0°C (46°F)
Dewpoint: 3.0°C (37°F) [RH = 71%]
Pressure (altimeter): 29.47 inches Hg (998.0 mb)
Winds: from the WNW (290 degrees) at 12 MPH (10 knots; 5.1 m/s)
Visibility: 6 or more miles (10+ km)
Ceiling: 9500 feet AGL
Clouds: scattered clouds at 2700 feet AGL
broken clouds at 9500 feet AGL
Weather: -SHRA  (light rain showers)

METAR text: YMHB 201700Z 31015KT 9999 FEW026 SCT035 BKN093 08/03 Q0998 RF00.0/002.8
Conditions at: YMHB (HOBART/TASMANIA , AU) observed 1700 UTC 20 August 2019
Temperature: 8.0°C (46°F)
Dewpoint: 3.0°C (37°F) [RH = 71%]
Pressure (altimeter): 29.47 inches Hg (998.0 mb)
Winds: from the NW (310 degrees) at 17 MPH (15 knots; 7.7 m/s)
Visibility: 6 or more miles (10+ km)
Ceiling: 9300 feet AGL
Clouds: few clouds at 2600 feet AGL
scattered clouds at 3500 feet AGL
broken clouds at 9300 feet AGL
Weather: no significant weather observed at this time

METAR text: YMHB 201630Z 29013KT 9999 -SHRA FEW025 SCT035 09/03 Q0999 RF00.0/002.8
Conditions at: YMHB (HOBART/TASMANIA , AU) observed 1630 UTC 20 August 2019
Temperature: 9.0°C (48°F)
Dewpoint: 3.0°C (37°F) [RH = 66%]
Pressure (altimeter): 29.50 inches Hg (999.0 mb)
Winds: from the WNW (290 degrees) at 15 MPH (13 knots; 6.7 m/s)
Visibility: 6 or more miles (10+ km)
Ceiling: at least 12,000 feet AGL
Clouds: few clouds at 2500 feet AGL
scattered clouds at 3500 feet AGL
Weather: -SHRA  (light rain showers)

METAR text: YMHB 201600Z 29014KT 9999 FEW039 SCT090 09/02 Q0998 RF00.0/002.8
Conditions at: YMHB (HOBART/TASMANIA , AU) observed 1600 UTC 20 August 2019
Temperature: 9.0°C (48°F)
Dewpoint: 2.0°C (36°F) [RH = 61%]
Pressure (altimeter): 29.47 inches Hg (998.0 mb)
Winds: from the WNW (290 degrees) at 16 MPH (14 knots; 7.2 m/s)
Visibility: 6 or more miles (10+ km)
Ceiling: at least 12,000 feet AGL
Clouds: few clouds at 3900 feet AGL
scattered clouds at 9000 feet AGL
Weather: no significant weather observed at this time

METAR text: YMHB 201530Z 28017G27KT 9999 FEW025 SCT030 10/01 Q0999 RF00.0/002.8
Conditions at: YMHB (HOBART/TASMANIA , AU) observed 1530 UTC 20 August 2019
Temperature: 10.0°C (50°F)
Dewpoint: 1.0°C (34°F) [RH = 53%]
Pressure (altimeter): 29.50 inches Hg (999.0 mb)
Winds: from the W (280 degrees) at 20 MPH (17 knots; 8.7 m/s)
gusting to 31 MPH (27 knots; 13.9 m/s)
Visibility: 6 or more miles (10+ km)
Ceiling: at least 12,000 feet AGL
Clouds: few clouds at 2500 feet AGL
scattered clouds at 3000 feet AGL
Weather: no significant weather observed at this time

METAR text: YMHB 201515Z 29015G25KT 9999 FEW052 SCT140 10/01 Q0999 RF00/0/002/8
Conditions at: YMHB (HOBART/TASMANIA , AU) observed 1515 UTC 20 August 2019
Temperature: 10.0°C (50°F)
Dewpoint: 1.0°C (34°F) [RH = 53%]
Pressure (altimeter): 29.50 inches Hg (999.0 mb)
Winds: from the WNW (290 degrees) at 17 MPH (15 knots; 7.7 m/s)
gusting to 29 MPH (25 knots; 12.9 m/s)
Visibility: 6 or more miles (10+ km)
Ceiling: at least 12,000 feet AGL
Clouds: few clouds at 5200 feet AGL
scattered clouds at 14000 feet AGL
Weather: no significant weather observed at this time

METAR text: YMHB 201500Z 29018KT 9999 SCT052 10/01 Q0999
Conditions at: YMHB (HOBART/TASMANIA , AU) observed 1500 UTC 20 August 2019
Temperature: 10.0°C (50°F)
Dewpoint: 1.0°C (34°F) [RH = 53%]
Pressure (altimeter): 29.50 inches Hg (999.0 mb)
Winds: from the WNW (290 degrees) at 21 MPH (18 knots; 9.3 m/s)
Visibility: 6 or more miles (10+ km)
Ceiling: at least 12,000 feet AGL
Clouds: scattered clouds at 5200 feet AGL
Weather: no significant weather observed at this time

METAR text: YMHB 201430Z 29019KT 9999 SCT052 SCT140 10/01 Q0999 RF00.0/002.8
Conditions at: YMHB (HOBART/TASMANIA , AU) observed 1430 UTC 20 August 2019
Temperature: 10.0°C (50°F)
Dewpoint: 1.0°C (34°F) [RH = 53%]
Pressure (altimeter): 29.50 inches Hg (999.0 mb)
Winds: from the WNW (290 degrees) at 22 MPH (19 knots; 9.8 m/s)
Visibility: 6 or more miles (10+ km)
Ceiling: at least 12,000 feet AGL
Clouds: scattered clouds at 5200 feet AGL
scattered clouds at 14000 feet AGL
Weather: no significant weather observed at this time

METAR text: YMHB 201409Z 28016G26KT 9999 FEW032 SCT045 10/01 Q0999 RF00/0/002/8
Conditions at: YMHB (HOBART/TASMANIA , AU) observed 1409 UTC 20 August 2019
Temperature: 10.0°C (50°F)
Dewpoint: 1.0°C (34°F) [RH = 53%]
Pressure (altimeter): 29.50 inches Hg (999.0 mb)
Winds: from the W (280 degrees) at 18 MPH (16 knots; 8.2 m/s)
gusting to 30 MPH (26 knots; 13.4 m/s)
Visibility: 6 or more miles (10+ km)
Ceiling: at least 12,000 feet AGL
Clouds: few clouds at 3200 feet AGL
scattered clouds at 4500 feet AGL
Weather: no significant weather observed at this time

METAR text: YMHB 201400Z 29016KT 9999 -SHRA FEW030 SCT040 10/01 Q0999 RF00.0/002.8
Conditions at: YMHB (HOBART/TASMANIA , AU) observed 1400 UTC 20 August 2019
Temperature: 10.0°C (50°F)
Dewpoint: 1.0°C (34°F) [RH = 53%]
Pressure (altimeter): 29.50 inches Hg (999.0 mb)
Winds: from the WNW (290 degrees) at 18 MPH (16 knots; 8.2 m/s)
Visibility: 6 or more miles (10+ km)
Ceiling: at least 12,000 feet AGL
Clouds: few clouds at 3000 feet AGL
scattered clouds at 4000 feet AGL
Weather: -SHRA  (light rain showers)

METAR text: YMHB 201330Z 28016KT 9999 -SHRA FEW022 SCT028 10/00 Q0999 RF00.0/002.8
Conditions at: YMHB (HOBART/TASMANIA , AU) observed 1330 UTC 20 August 2019
Temperature: 10.0°C (50°F)
Dewpoint: 0.0°C (32°F) [RH = 50%]
Pressure (altimeter): 29.50 inches Hg (999.0 mb)
Winds: from the W (280 degrees) at 18 MPH (16 knots; 8.2 m/s)
Visibility: 6 or more miles (10+ km)
Ceiling: at least 12,000 feet AGL
Clouds: few clouds at 2200 feet AGL
scattered clouds at 2800 feet AGL
Weather: -SHRA  (light rain showers)

METAR text: YMHB 201326Z 28016G26KT 9999 -SHRA FEW022 SCT026 10/01 Q0999
Conditions at: YMHB (HOBART/TASMANIA , AU) observed 1326 UTC 20 August 2019
Temperature: 10.0°C (50°F)
Dewpoint: 1.0°C (34°F) [RH = 53%]
Pressure (altimeter): 29.50 inches Hg (999.0 mb)
Winds: from the W (280 degrees) at 18 MPH (16 knots; 8.2 m/s)
gusting to 30 MPH (26 knots; 13.4 m/s)
Visibility: 6 or more miles (10+ km)
Ceiling: at least 12,000 feet AGL
Clouds: few clouds at 2200 feet AGL
scattered clouds at 2600 feet AGL
Weather: -SHRA  (light rain showers)

METAR text: YMHB 201300Z 29013G24KT 9999 VCSH FEW042 SCT110 11/M00 Q0999
Conditions at: YMHB (HOBART/TASMANIA , AU) observed 1300 UTC 20 August 2019
Temperature: 11.0°C (52°F)
Dewpoint: 0.0°C (32°F) [RH = 47%]
Pressure (altimeter): 29.50 inches Hg (999.0 mb)
Winds: from the WNW (290 degrees) at 15 MPH (13 knots; 6.7 m/s)
gusting to 28 MPH (24 knots; 12.3 m/s)
Visibility: 6 or more miles (10+ km)
Ceiling: at least 12,000 feet AGL
Clouds: few clouds at 4200 feet AGL
scattered clouds at 11000 feet AGL
Weather: VCSH  (showers in vicinity)

METAR text: YMHB 201230Z 28015KT 9999 -SHRA SCT039 10/01 Q0999 RF00.0/002.8
Conditions at: YMHB (HOBART/TASMANIA , AU) observed 1230 UTC 20 August 2019
Temperature: 10.0°C (50°F)
Dewpoint: 1.0°C (34°F) [RH = 53%]
Pressure (altimeter): 29.50 inches Hg (999.0 mb)
Winds: from the W (280 degrees) at 17 MPH (15 knots; 7.7 m/s)
Visibility: 6 or more miles (10+ km)
Ceiling: at least 12,000 feet AGL
Clouds: scattered clouds at 3900 feet AGL
Weather: -SHRA  (light rain showers)

METAR text: YMHB 201200Z 28015KT 9999 -SHRA SCT035 SCT100 10/01 Q1000 RF00.0/002.8
Conditions at: YMHB (HOBART/TASMANIA , AU) observed 1200 UTC 20 August 2019
Temperature: 10.0°C (50°F)
Dewpoint: 1.0°C (34°F) [RH = 53%]
Pressure (altimeter): 29.53 inches Hg (1000.0 mb)
Winds: from the W (280 degrees) at 17 MPH (15 knots; 7.7 m/s)
Visibility: 6 or more miles (10+ km)
Ceiling: at least 12,000 feet AGL
Clouds: scattered clouds at 3500 feet AGL
scattered clouds at 10000 feet AGL
Weather: -SHRA  (light rain showers)

METAR text: YMHB 201130Z 26013KT 9999 FEW038 SCT100 11/M01 Q1000 RF00.0/002.8
Conditions at: YMHB (HOBART/TASMANIA , AU) observed 1130 UTC 20 August 2019
Temperature: 11.0°C (52°F)
Dewpoint: -1.0°C (30°F) [RH = 43%]
Pressure (altimeter): 29.53 inches Hg (1000.0 mb)
Winds: from the W (260 degrees) at 15 MPH (13 knots; 6.7 m/s)
Visibility: 6 or more miles (10+ km)
Ceiling: at least 12,000 feet AGL
Clouds: few clouds at 3800 feet AGL
scattered clouds at 10000 feet AGL
Weather: no significant weather observed at this time

METAR text: YMHB 201100Z 28017KT 9999 FEW045 12/M02 Q0999
Conditions at: YMHB (HOBART/TASMANIA , AU) observed 1100 UTC 20 August 2019
Temperature: 12.0°C (54°F)
Dewpoint: -2.0°C (28°F) [RH = 38%]
Pressure (altimeter): 29.50 inches Hg (999.0 mb)
Winds: from the W (280 degrees) at 20 MPH (17 knots; 8.7 m/s)
Visibility: 6 or more miles (10+ km)
Ceiling: at least 12,000 feet AGL
Clouds: few clouds at 4500 feet AGL
Weather: no significant weather observed at this time

METAR text: YMHB 201053Z 28017G27KT 9999 FEW045 11/M02 Q0999 RF00/0/002/8
Conditions at: YMHB (HOBART/TASMANIA , AU) observed 1053 UTC 20 August 2019
Temperature: 11.0°C (52°F)
Dewpoint: -2.0°C (28°F) [RH = 40%]
Pressure (altimeter): 29.50 inches Hg (999.0 mb)
Winds: from the W (280 degrees) at 20 MPH (17 knots; 8.7 m/s)
gusting to 31 MPH (27 knots; 13.9 m/s)
Visibility: 6 or more miles (10+ km)
Ceiling: at least 12,000 feet AGL
Clouds: few clouds at 4500 feet AGL
Weather: no significant weather observed at this time

METAR text: YMHB 201030Z 30016KT 9999 FEW045 11/M01 Q0999
Conditions at: YMHB (HOBART/TASMANIA , AU) observed 1030 UTC 20 August 2019
Temperature: 11.0°C (52°F)
Dewpoint: -1.0°C (30°F) [RH = 43%]
Pressure (altimeter): 29.50 inches Hg (999.0 mb)
Winds: from the WNW (300 degrees) at 18 MPH (16 knots; 8.2 m/s)
Visibility: 6 or more miles (10+ km)
Ceiling: at least 12,000 feet AGL
Clouds: few clouds at 4500 feet AGL
Weather: no significant weather observed at this time

METAR text: YMHB 201000Z 29017KT 9999 FEW045 12/M02 Q0999
Conditions at: YMHB (HOBART/TASMANIA , AU) observed 1000 UTC 20 August 2019
Temperature: 12.0°C (54°F)
Dewpoint: -2.0°C (28°F) [RH = 38%]
Pressure (altimeter): 29.50 inches Hg (999.0 mb)
Winds: from the WNW (290 degrees) at 20 MPH (17 knots; 8.7 m/s)
Visibility: 6 or more miles (10+ km)
Ceiling: at least 12,000 feet AGL
Clouds: few clouds at 4500 feet AGL
Weather: no significant weather observed at this time

METAR text: YMHB 200930Z 28022G33KT 9999 FEW045 12/M05 Q0999 RF00.0/002.8
Conditions at: YMHB (HOBART/TASMANIA , AU) observed 0930 UTC 20 August 2019
Temperature: 12.0°C (54°F)
Dewpoint: -5.0°C (23°F) [RH = 30%]
Pressure (altimeter): 29.50 inches Hg (999.0 mb)
Winds: from the W (280 degrees) at 25 MPH (22 knots; 11.3 m/s)
gusting to 38 MPH (33 knots; 17.0 m/s)
Visibility: 6 or more miles (10+ km)
Ceiling: at least 12,000 feet AGL
Clouds: few clouds at 4500 feet AGL
Weather: no significant weather observed at this time

METAR text: YMHB 200900Z 27025G35KT 9999 FEW050 12/M04 Q0999 RF00.0/002.8
Conditions at: YMHB (HOBART/TASMANIA , AU) observed 0900 UTC 20 August 2019
Temperature: 12.0°C (54°F)
Dewpoint: -4.0°C (25°F) [RH = 32%]
Pressure (altimeter): 29.50 inches Hg (999.0 mb)
Winds: from the W (270 degrees) at 29 MPH (25 knots; 12.9 m/s)
gusting to 40 MPH (35 knots; 18.0 m/s)
Visibility: 6 or more miles (10+ km)
Ceiling: at least 12,000 feet AGL
Clouds: few clouds at 5000 feet AGL
Weather: no significant weather observed at this time

METAR text: YMHB 200842Z 27020G30KT 9999 FEW050 12/M02 Q0999 RF00/0/002/8
Conditions at: YMHB (HOBART/TASMANIA , AU) observed 0842 UTC 20 August 2019
Temperature: 12.0°C (54°F)
Dewpoint: -2.0°C (28°F) [RH = 38%]
Pressure (altimeter): 29.50 inches Hg (999.0 mb)
Winds: from the W (270 degrees) at 23 MPH (20 knots; 10.3 m/s)
gusting to 34 MPH (30 knots; 15.4 m/s)
Visibility: 6 or more miles (10+ km)
Ceiling: at least 12,000 feet AGL
Clouds: few clouds at 5000 feet AGL
Weather: no significant weather observed at this time

METAR text: YMHB 200830Z 27020KT 9999 FEW050 12/M02 Q0999
Conditions at: YMHB (HOBART/TASMANIA , AU) observed 0830 UTC 20 August 2019
Temperature: 12.0°C (54°F)
Dewpoint: -2.0°C (28°F) [RH = 38%]
Pressure (altimeter): 29.50 inches Hg (999.0 mb)
Winds: from the W (270 degrees) at 23 MPH (20 knots; 10.3 m/s)
Visibility: 6 or more miles (10+ km)
Ceiling: at least 12,000 feet AGL
Clouds: few clouds at 5000 feet AGL
Weather: no significant weather observed at this time

METAR text: YMHB 200800Z 27017KT 9999 FEW022 12/M00 Q0998
Conditions at: YMHB (HOBART/TASMANIA , AU) observed 0800 UTC 20 August 2019
Temperature: 12.0°C (54°F)
Dewpoint: 0.0°C (32°F) [RH = 44%]
Pressure (altimeter): 29.47 inches Hg (998.0 mb)
Winds: from the W (270 degrees) at 20 MPH (17 knots; 8.7 m/s)
Visibility: 6 or more miles (10+ km)
Ceiling: at least 12,000 feet AGL
Clouds: few clouds at 2200 feet AGL
Weather: no significant weather observed at this time

METAR text: YMHB 200734Z 27023G43KT 9999 VCSH FEW022 SCT065 13/M01 Q0997 RESHRA
Conditions at: YMHB (HOBART/TASMANIA , AU) observed 0734 UTC 20 August 2019
Temperature: 13.0°C (55°F)
Dewpoint: -1.0°C (30°F) [RH = 38%]
Pressure (altimeter): 29.44 inches Hg (997.0 mb)
Winds: from the W (270 degrees) at 26 MPH (23 knots; 11.8 m/s)
gusting to 49 MPH (43 knots; 22.1 m/s)
Visibility: 6 or more miles (10+ km)
Ceiling: at least 12,000 feet AGL
Clouds: few clouds at 2200 feet AGL
scattered clouds at 6500 feet AGL
Weather: VCSH  (showers in vicinity)

METAR text: YMHB 200733Z 27022G32KT 9999 VCSH FEW022 SCT065 13/M01 Q0997 RESHRA
Conditions at: YMHB (HOBART/TASMANIA , AU) observed 0733 UTC 20 August 2019
Temperature: 13.0°C (55°F)
Dewpoint: -1.0°C (30°F) [RH = 38%]
Pressure (altimeter): 29.44 inches Hg (997.0 mb)
Winds: from the W (270 degrees) at 25 MPH (22 knots; 11.3 m/s)
gusting to 37 MPH (32 knots; 16.5 m/s)
Visibility: 6 or more miles (10+ km)
Ceiling: at least 12,000 feet AGL
Clouds: few clouds at 2200 feet AGL
scattered clouds at 6500 feet AGL
Weather: VCSH  (showers in vicinity)

METAR text: YMHB 200725Z 27023G39KT 9999 VCSH FEW016 BKN058 12/05 Q0998 RESHRA
Conditions at: YMHB (HOBART/TASMANIA , AU) observed 0725 UTC 20 August 2019
Temperature: 12.0°C (54°F)
Dewpoint: 5.0°C (41°F) [RH = 62%]
Pressure (altimeter): 29.47 inches Hg (998.0 mb)
Winds: from the W (270 degrees) at 26 MPH (23 knots; 11.8 m/s)
gusting to 45 MPH (39 knots; 20.1 m/s)
Visibility: 6 or more miles (10+ km)
Ceiling: 5800 feet AGL
Clouds: few clouds at 1600 feet AGL
broken clouds at 5800 feet AGL
Weather: VCSH  (showers in vicinity)

METAR text: YMHB 200718Z 29020G39KT 9999 -SHRA FEW016 SCT020 BKN048 12/06 Q0998 RESHRA
Conditions at: YMHB (HOBART/TASMANIA , AU) observed 0718 UTC 20 August 2019
Temperature: 12.0°C (54°F)
Dewpoint: 6.0°C (43°F) [RH = 67%]
Pressure (altimeter): 29.47 inches Hg (998.0 mb)
Winds: from the WNW (290 degrees) at 23 MPH (20 knots; 10.3 m/s)
gusting to 45 MPH (39 knots; 20.1 m/s)
Visibility: 6 or more miles (10+ km)
Ceiling: 4800 feet AGL
Clouds: few clouds at 1600 feet AGL
scattered clouds at 2000 feet AGL
broken clouds at 4800 feet AGL
Weather: -SHRA  (light rain showers)

METAR text: YMHB 200717Z 29018G29KT 9999 -SHRA FEW016 SCT020 BKN048 12/06 Q0998 RESHRA
Conditions at: YMHB (HOBART/TASMANIA , AU) observed 0717 UTC 20 August 2019
Temperature: 12.0°C (54°F)
Dewpoint: 6.0°C (43°F) [RH = 67%]
Pressure (altimeter): 29.47 inches Hg (998.0 mb)
Winds: from the WNW (290 degrees) at 21 MPH (18 knots; 9.3 m/s)
gusting to 33 MPH (29 knots; 14.9 m/s)
Visibility: 6 or more miles (10+ km)
Ceiling: 4800 feet AGL
Clouds: few clouds at 1600 feet AGL
scattered clouds at 2000 feet AGL
broken clouds at 4800 feet AGL
Weather: -SHRA  (light rain showers)

METAR text: YMHB 200715Z 30015KT 9999 -SHRA FEW016 SCT020 BKN048 11/07 Q0998 RESHRA
Conditions at: YMHB (HOBART/TASMANIA , AU) observed 0715 UTC 20 August 2019
Temperature: 11.0°C (52°F)
Dewpoint: 7.0°C (45°F) [RH = 76%]
Pressure (altimeter): 29.47 inches Hg (998.0 mb)
Winds: from the WNW (300 degrees) at 17 MPH (15 knots; 7.7 m/s)
Visibility: 6 or more miles (10+ km)
Ceiling: 4800 feet AGL
Clouds: few clouds at 1600 feet AGL
scattered clouds at 2000 feet AGL
broken clouds at 4800 feet AGL
Weather: -SHRA  (light rain showers)

METAR text: YMHB 200706Z 26015KT 250V310 8000 3500N +SHRA FEW015 SCT022 BKN032 11/09 Q0998
Conditions at: YMHB (HOBART/TASMANIA , AU) observed 0706 UTC 20 August 2019
Temperature: 11.0°C (52°F)
Dewpoint: 9.0°C (48°F) [RH = 87%]
Pressure (altimeter): 29.47 inches Hg (998.0 mb)
Winds: from the W (260 degrees) at 17 MPH (15 knots; 7.7 m/s)
Visibility: 5 miles ( 8 km)
Ceiling: 3200 feet AGL
Clouds: few clouds at 1500 feet AGL
scattered clouds at 2200 feet AGL
broken clouds at 3200 feet AGL
Weather: +SHRA  (heavy rain showers)

METAR text: YMHB 200700Z 30017KT 9999 3500W SHRA FEW015 SCT023 BKN042 11/08 Q0998
Conditions at: YMHB (HOBART/TASMANIA , AU) observed 0700 UTC 20 August 2019
Temperature: 11.0°C (52°F)
Dewpoint: 8.0°C (46°F) [RH = 82%]
Pressure (altimeter): 29.47 inches Hg (998.0 mb)
Winds: from the WNW (300 degrees) at 20 MPH (17 knots; 8.7 m/s)
Visibility: 6 or more miles (10+ km)
Ceiling: 4200 feet AGL
Clouds: few clouds at 1500 feet AGL
scattered clouds at 2300 feet AGL
broken clouds at 4200 feet AGL
Weather: SHRA  (rain showers)

METAR text: YMHB 200630Z 32021KT 9999 -SHRA FEW020 BKN035 BKN055 11/08 Q0997
Conditions at: YMHB (HOBART/TASMANIA , AU) observed 0630 UTC 20 August 2019
Temperature: 11.0°C (52°F)
Dewpoint: 8.0°C (46°F) [RH = 82%]
Pressure (altimeter): 29.44 inches Hg (997.0 mb)
Winds: from the NW (320 degrees) at 24 MPH (21 knots; 10.8 m/s)
Visibility: 6 or more miles (10+ km)
Ceiling: 3500 feet AGL
Clouds: few clouds at 2000 feet AGL
broken clouds at 3500 feet AGL
broken clouds at 5500 feet AGL
Weather: -SHRA  (light rain showers)

METAR text: YMHB 200602Z 31020G30KT 9999 -SHRA FEW022 SCT035 BKN058 12/08 Q0998
Conditions at: YMHB (HOBART/TASMANIA , AU) observed 0602 UTC 20 August 2019
Temperature: 12.0°C (54°F)
Dewpoint: 8.0°C (46°F) [RH = 76%]
Pressure (altimeter): 29.47 inches Hg (998.0 mb)
Winds: from the NW (310 degrees) at 23 MPH (20 knots; 10.3 m/s)
gusting to 34 MPH (30 knots; 15.4 m/s)
Visibility: 6 or more miles (10+ km)
Ceiling: 5800 feet AGL
Clouds: few clouds at 2200 feet AGL
scattered clouds at 3500 feet AGL
broken clouds at 5800 feet AGL
Weather: -SHRA  (light rain showers)

METAR text: YMHB 200538Z 30022G32KT 9999 -SHRA FEW022 SCT032 BKN060 12/07 Q0998
Conditions at: YMHB (HOBART/TASMANIA , AU) observed 0538 UTC 20 August 2019
Temperature: 12.0°C (54°F)
Dewpoint: 7.0°C (45°F) [RH = 71%]
Pressure (altimeter): 29.47 inches Hg (998.0 mb)
Winds: from the WNW (300 degrees) at 25 MPH (22 knots; 11.3 m/s)
gusting to 37 MPH (32 knots; 16.5 m/s)
Visibility: 6 or more miles (10+ km)
Ceiling: 6000 feet AGL
Clouds: few clouds at 2200 feet AGL
scattered clouds at 3200 feet AGL
broken clouds at 6000 feet AGL
Weather: -SHRA  (light rain showers)

METAR text: YMHB 200530Z 30021KT 9999 -SHRA FEW024 BKN034 BKN070 13/07 Q0998
Conditions at: YMHB (HOBART/TASMANIA , AU) observed 0530 UTC 20 August 2019
Temperature: 13.0°C (55°F)
Dewpoint: 7.0°C (45°F) [RH = 67%]
Pressure (altimeter): 29.47 inches Hg (998.0 mb)
Winds: from the WNW (300 degrees) at 24 MPH (21 knots; 10.8 m/s)
Visibility: 6 or more miles (10+ km)
Ceiling: 3400 feet AGL
Clouds: few clouds at 2400 feet AGL
broken clouds at 3400 feet AGL
broken clouds at 7000 feet AGL
Weather: -SHRA  (light rain showers)

METAR text: YMHB 200500Z 30029G42KT 9999 -SHRA FEW032 SCT045 14/05 Q0997
Conditions at: YMHB (HOBART/TASMANIA , AU) observed 0500 UTC 20 August 2019
Temperature: 14.0°C (57°F)
Dewpoint: 5.0°C (41°F) [RH = 55%]
Pressure (altimeter): 29.44 inches Hg (997.0 mb)
Winds: from the WNW (300 degrees) at 33 MPH (29 knots; 14.9 m/s)
gusting to 48 MPH (42 knots; 21.6 m/s)
Visibility: 6 or more miles (10+ km)
Ceiling: at least 12,000 feet AGL
Clouds: few clouds at 3200 feet AGL
scattered clouds at 4500 feet AGL
Weather: -SHRA  (light rain showers)

METAR text: YMHB 200452Z AUTO 29032G42KT 9999 // SCT047 SCT125 14/05 Q0997
Conditions at: YMHB (HOBART/TASMANIA , AU) observed 0452 UTC 20 August 2019
Temperature: 14.0°C (57°F)
Dewpoint: 5.0°C (41°F) [RH = 55%]
Pressure (altimeter): 29.44 inches Hg (997.0 mb)
Winds: from the WNW (290 degrees) at 37 MPH (32 knots; 16.5 m/s)
gusting to 48 MPH (42 knots; 21.6 m/s)
Visibility: 6 or more miles (10+ km)
Ceiling: at least 12,000 feet AGL
Clouds: scattered clouds at 4700 feet AGL
scattered clouds at 12500 feet AGL
Weather: no significant weather observed at this time

METAR text: YMHB 200448Z 30033KT 9999 -SHRA FEW032 SCT044 15/04 Q0997 RF00/0/000/2
Conditions at: YMHB (HOBART/TASMANIA , AU) observed 0448 UTC 20 August 2019
Temperature: 15.0°C (59°F)
Dewpoint: 4.0°C (39°F) [RH = 48%]
Pressure (altimeter): 29.44 inches Hg (997.0 mb)
Winds: from the WNW (300 degrees) at 38 MPH (33 knots; 17.0 m/s)
Visibility: 6 or more miles (10+ km)
Ceiling: at least 12,000 feet AGL
Clouds: few clouds at 3200 feet AGL
scattered clouds at 4400 feet AGL
Weather: -SHRA  (light rain showers)

METAR text: YMHB 200431Z 29021G31KT 9999 -SHRA FEW040 SCT180 16/04 Q0998
Conditions at: YMHB (HOBART/TASMANIA , AU) observed 0431 UTC 20 August 2019
Temperature: 16.0°C (61°F)
Dewpoint: 4.0°C (39°F) [RH = 45%]
Pressure (altimeter): 29.47 inches Hg (998.0 mb)
Winds: from the WNW (290 degrees) at 24 MPH (21 knots; 10.8 m/s)
gusting to 36 MPH (31 knots; 15.9 m/s)
Visibility: 6 or more miles (10+ km)
Ceiling: at least 12,000 feet AGL
Clouds: few clouds at 4000 feet AGL
scattered clouds at 18000 feet AGL
Weather: -SHRA  (light rain showers)

METAR text: YMHB 200401Z 28016G28KT 270V340 9999 FEW041 17/03 Q0998 RF00/0/000/2
Conditions at: YMHB (HOBART/TASMANIA , AU) observed 0401 UTC 20 August 2019
Temperature: 17.0°C (63°F)
Dewpoint: 3.0°C (37°F) [RH = 39%]
Pressure (altimeter): 29.47 inches Hg (998.0 mb)
Winds: from the W (280 degrees) at 18 MPH (16 knots; 8.2 m/s)
gusting to 32 MPH (28 knots; 14.4 m/s)
Visibility: 6 or more miles (10+ km)
Ceiling: at least 12,000 feet AGL
Clouds: few clouds at 4100 feet AGL
Weather: no significant weather observed at this time

METAR text: YMHB 200330Z 32015G26KT 9999 VCSH FEW041 BKN048 16/03 Q1000
Conditions at: YMHB (HOBART/TASMANIA , AU) observed 0330 UTC 20 August 2019
Temperature: 16.0°C (61°F)
Dewpoint: 3.0°C (37°F) [RH = 42%]
Pressure (altimeter): 29.53 inches Hg (1000.0 mb)
Winds: from the NW (320 degrees) at 17 MPH (15 knots; 7.7 m/s)
gusting to 30 MPH (26 knots; 13.4 m/s)
Visibility: 6 or more miles (10+ km)
Ceiling: 4800 feet AGL
Clouds: few clouds at 4100 feet AGL
broken clouds at 4800 feet AGL
Weather: VCSH  (showers in vicinity)

METAR text: YMHB 200300Z 30017G28KT 9999 FEW042 BKN050 16/04 Q1000 RF00.0/000.0
Conditions at: YMHB (HOBART/TASMANIA , AU) observed 0300 UTC 20 August 2019
Temperature: 16.0°C (61°F)
Dewpoint: 4.0°C (39°F) [RH = 45%]
Pressure (altimeter): 29.53 inches Hg (1000.0 mb)
Winds: from the WNW (300 degrees) at 20 MPH (17 knots; 8.7 m/s)
gusting to 32 MPH (28 knots; 14.4 m/s)
Visibility: 6 or more miles (10+ km)
Ceiling: 5000 feet AGL
Clouds: few clouds at 4200 feet AGL
broken clouds at 5000 feet AGL
Weather: no significant weather observed at this time

METAR text: YMHB 200257Z 31017G28KT 9999 FEW042 BKN050 16/03 Q1000 RF00/0/000/0
Conditions at: YMHB (HOBART/TASMANIA , AU) observed 0257 UTC 20 August 2019
Temperature: 16.0°C (61°F)
Dewpoint: 3.0°C (37°F) [RH = 42%]
Pressure (altimeter): 29.53 inches Hg (1000.0 mb)
Winds: from the NW (310 degrees) at 20 MPH (17 knots; 8.7 m/s)
gusting to 32 MPH (28 knots; 14.4 m/s)
Visibility: 6 or more miles (10+ km)
Ceiling: 5000 feet AGL
Clouds: few clouds at 4200 feet AGL
broken clouds at 5000 feet AGL
Weather: no significant weather observed at this time

METAR text: YMHB 200230Z 27015KT 9999 VCSH FEW040 BKN045 16/04 Q1001 RF00.0/000.0
Conditions at: YMHB (HOBART/TASMANIA , AU) observed 0230 UTC 20 August 2019
Temperature: 16.0°C (61°F)
Dewpoint: 4.0°C (39°F) [RH = 45%]
Pressure (altimeter): 29.56 inches Hg (1001.0 mb)
Winds: from the W (270 degrees) at 17 MPH (15 knots; 7.7 m/s)
Visibility: 6 or more miles (10+ km)
Ceiling: 4500 feet AGL
Clouds: few clouds at 4000 feet AGL
broken clouds at 4500 feet AGL
Weather: VCSH  (showers in vicinity)

METAR text: YMHB 200200Z 28016KT 9999 -SHRA FEW035 BKN042 15/06 Q1001 RF00.0/000.0
Conditions at: YMHB (HOBART/TASMANIA , AU) observed 0200 UTC 20 August 2019
Temperature: 15.0°C (59°F)
Dewpoint: 6.0°C (43°F) [RH = 55%]
Pressure (altimeter): 29.56 inches Hg (1001.0 mb)
Winds: from the W (280 degrees) at 18 MPH (16 knots; 8.2 m/s)
Visibility: 6 or more miles (10+ km)
Ceiling: 4200 feet AGL
Clouds: few clouds at 3500 feet AGL
broken clouds at 4200 feet AGL
Weather: -SHRA  (light rain showers)

METAR text: YMHB 200130Z 31018G29KT 9999 VCSH FEW028 BKN036 15/07 Q1002
Conditions at: YMHB (HOBART/TASMANIA , AU) observed 0130 UTC 20 August 2019
Temperature: 15.0°C (59°F)
Dewpoint: 7.0°C (45°F) [RH = 59%]
Pressure (altimeter): 29.59 inches Hg (1002.0 mb)
Winds: from the NW (310 degrees) at 21 MPH (18 knots; 9.3 m/s)
gusting to 33 MPH (29 knots; 14.9 m/s)
Visibility: 6 or more miles (10+ km)
Ceiling: 3600 feet AGL
Clouds: few clouds at 2800 feet AGL
broken clouds at 3600 feet AGL
Weather: VCSH  (showers in vicinity)

METAR text: YMHB 200129Z 32019G29KT 9999 VCSH FEW028 BKN036 15/08 Q1002
Conditions at: YMHB (HOBART/TASMANIA , AU) observed 0129 UTC 20 August 2019
Temperature: 15.0°C (59°F)
Dewpoint: 8.0°C (46°F) [RH = 63%]
Pressure (altimeter): 29.59 inches Hg (1002.0 mb)
Winds: from the NW (320 degrees) at 22 MPH (19 knots; 9.8 m/s)
gusting to 33 MPH (29 knots; 14.9 m/s)
Visibility: 6 or more miles (10+ km)
Ceiling: 3600 feet AGL
Clouds: few clouds at 2800 feet AGL
broken clouds at 3600 feet AGL
Weather: VCSH  (showers in vicinity)

METAR text: YMHB 200100Z 32017KT 9999 -SHRA FEW026 BKN036 14/07 Q1002 RF00.0/000.0
Conditions at: YMHB (HOBART/TASMANIA , AU) observed 0100 UTC 20 August 2019
Temperature: 14.0°C (57°F)
Dewpoint: 7.0°C (45°F) [RH = 63%]
Pressure (altimeter): 29.59 inches Hg (1002.0 mb)
Winds: from the NW (320 degrees) at 20 MPH (17 knots; 8.7 m/s)
Visibility: 6 or more miles (10+ km)
Ceiling: 3600 feet AGL
Clouds: few clouds at 2600 feet AGL
broken clouds at 3600 feet AGL
Weather: -SHRA  (light rain showers)

METAR text: YMHB 200030Z 34015KT 9999 VCSH FEW028 BKN036 14/07 Q1003 RF00.0/000.0
Conditions at: YMHB (HOBART/TASMANIA , AU) observed 0030 UTC 20 August 2019
Temperature: 14.0°C (57°F)
Dewpoint: 7.0°C (45°F) [RH = 63%]
Pressure (altimeter): 29.62 inches Hg (1003.0 mb)
Winds: from the NNW (340 degrees) at 17 MPH (15 knots; 7.7 m/s)
Visibility: 6 or more miles (10+ km)
Ceiling: 3600 feet AGL
Clouds: few clouds at 2800 feet AGL
broken clouds at 3600 feet AGL
Weather: VCSH  (showers in vicinity)

METAR text: YMHB 200000Z 33018KT 9999 VCSH FEW030 BKN038 14/07 Q1003 RF00.0/000.0
Conditions at: YMHB (HOBART/TASMANIA , AU) observed 0000 UTC 20 August 2019
Temperature: 14.0°C (57°F)
Dewpoint: 7.0°C (45°F) [RH = 63%]
Pressure (altimeter): 29.62 inches Hg (1003.0 mb)
Winds: from the NNW (330 degrees) at 21 MPH (18 knots; 9.3 m/s)
Visibility: 6 or more miles (10+ km)
Ceiling: 3800 feet AGL
Clouds: few clouds at 3000 feet AGL
broken clouds at 3800 feet AGL
Weather: VCSH  (showers in vicinity)

METAR text: YMHB 192330Z 33014KT 9999 -SHRA FEW030 BKN040 13/07 Q1004 RF00.0/000.0
Conditions at: YMHB (HOBART/TASMANIA , AU) observed 2330 UTC 19 August 2019
Temperature: 13.0°C (55°F)
Dewpoint: 7.0°C (45°F) [RH = 67%]
Pressure (altimeter): 29.65 inches Hg (1004.0 mb)
Winds: from the NNW (330 degrees) at 16 MPH (14 knots; 7.2 m/s)
Visibility: 6 or more miles (10+ km)
Ceiling: 4000 feet AGL
Clouds: few clouds at 3000 feet AGL
broken clouds at 4000 feet AGL
Weather: -SHRA  (light rain showers)

METAR text: YMHB 192300Z 33015KT 9999 -SHRA FEW032 SCT038 BKN060 13/07 Q1004
Conditions at: YMHB (HOBART/TASMANIA , AU) observed 2300 UTC 19 August 2019
Temperature: 13.0°C (55°F)
Dewpoint: 7.0°C (45°F) [RH = 67%]
Pressure (altimeter): 29.65 inches Hg (1004.0 mb)
Winds: from the NNW (330 degrees) at 17 MPH (15 knots; 7.7 m/s)
Visibility: 6 or more miles (10+ km)
Ceiling: 6000 feet AGL
Clouds: few clouds at 3200 feet AGL
scattered clouds at 3800 feet AGL
broken clouds at 6000 feet AGL
Weather: -SHRA  (light rain showers)

METAR text: YMHB 192230Z 33017KT 9999 -SHRA FEW032 BKN060 13/06 Q1004 RF00.0/000.0
Conditions at: YMHB (HOBART/TASMANIA , AU) observed 2230 UTC 19 August 2019
Temperature: 13.0°C (55°F)
Dewpoint: 6.0°C (43°F) [RH = 62%]
Pressure (altimeter): 29.65 inches Hg (1004.0 mb)
Winds: from the NNW (330 degrees) at 20 MPH (17 knots; 8.7 m/s)
Visibility: 6 or more miles (10+ km)
Ceiling: 6000 feet AGL
Clouds: few clouds at 3200 feet AGL
broken clouds at 6000 feet AGL
Weather: -SHRA  (light rain showers)

METAR text: YMHB 192200Z 33018KT 9999 -SHRA FEW032 SCT060 13/05 Q1004 RF00.0/000.0
Conditions at: YMHB (HOBART/TASMANIA , AU) observed 2200 UTC 19 August 2019
Temperature: 13.0°C (55°F)
Dewpoint: 5.0°C (41°F) [RH = 58%]
Pressure (altimeter): 29.65 inches Hg (1004.0 mb)
Winds: from the NNW (330 degrees) at 21 MPH (18 knots; 9.3 m/s)
Visibility: 6 or more miles (10+ km)
Ceiling: at least 12,000 feet AGL
Clouds: few clouds at 3200 feet AGL
scattered clouds at 6000 feet AGL
Weather: -SHRA  (light rain showers)

METAR text: YMHB 192130Z 33016KT 9999 VCSH FEW032 SCT060 13/05 Q1005 RF00.0/000.0
Conditions at: YMHB (HOBART/TASMANIA , AU) observed 2130 UTC 19 August 2019
Temperature: 13.0°C (55°F)
Dewpoint: 5.0°C (41°F) [RH = 58%]
Pressure (altimeter): 29.68 inches Hg (1005.0 mb)
Winds: from the NNW (330 degrees) at 18 MPH (16 knots; 8.2 m/s)
Visibility: 6 or more miles (10+ km)
Ceiling: at least 12,000 feet AGL
Clouds: few clouds at 3200 feet AGL
scattered clouds at 6000 feet AGL
Weather: VCSH  (showers in vicinity)

METAR text: YMHB 192100Z 31014KT 9999 -SHRA FEW030 SCT055 12/04 Q1005 RF00.0/000.0
Conditions at: YMHB (HOBART/TASMANIA , AU) observed 2100 UTC 19 August 2019
Temperature: 12.0°C (54°F)
Dewpoint: 4.0°C (39°F) [RH = 58%]
Pressure (altimeter): 29.68 inches Hg (1005.0 mb)
Winds: from the NW (310 degrees) at 16 MPH (14 knots; 7.2 m/s)
Visibility: 6 or more miles (10+ km)
Ceiling: at least 12,000 feet AGL
Clouds: few clouds at 3000 feet AGL
scattered clouds at 5500 feet AGL
Weather: -SHRA  (light rain showers)

METAR text: YMHB 192030Z 30018KT 9999 VCSH FEW030 SCT130 12/04 Q1004 RF00.0/000.0
Conditions at: YMHB (HOBART/TASMANIA , AU) observed 2030 UTC 19 August 2019
Temperature: 12.0°C (54°F)
Dewpoint: 4.0°C (39°F) [RH = 58%]
Pressure (altimeter): 29.65 inches Hg (1004.0 mb)
Winds: from the WNW (300 degrees) at 21 MPH (18 knots; 9.3 m/s)
Visibility: 6 or more miles (10+ km)
Ceiling: at least 12,000 feet AGL
Clouds: few clouds at 3000 feet AGL
scattered clouds at 13000 feet AGL
Weather: VCSH  (showers in vicinity)

METAR text: YMHB 192017Z 31022G32KT 9999 FEW027 12/04 Q1004 RF00/0/000/0
Conditions at: YMHB (HOBART/TASMANIA , AU) observed 2017 UTC 19 August 2019
Temperature: 12.0°C (54°F)
Dewpoint: 4.0°C (39°F) [RH = 58%]
Pressure (altimeter): 29.65 inches Hg (1004.0 mb)
Winds: from the NW (310 degrees) at 25 MPH (22 knots; 11.3 m/s)
gusting to 37 MPH (32 knots; 16.5 m/s)
Visibility: 6 or more miles (10+ km)
Ceiling: at least 12,000 feet AGL
Clouds: few clouds at 2700 feet AGL
Weather: no significant weather observed at this time

METAR text: YMHB 192000Z 31023KT 9999 FEW030 SCT045 12/04 Q1004 RF00.0/000.0
Conditions at: YMHB (HOBART/TASMANIA , AU) observed 2000 UTC 19 August 2019
Temperature: 12.0°C (54°F)
Dewpoint: 4.0°C (39°F) [RH = 58%]
Pressure (altimeter): 29.65 inches Hg (1004.0 mb)
Winds: from the NW (310 degrees) at 26 MPH (23 knots; 11.8 m/s)
Visibility: 6 or more miles (10+ km)
Ceiling: at least 12,000 feet AGL
Clouds: few clouds at 3000 feet AGL
scattered clouds at 4500 feet AGL
Weather: no significant weather observed at this time

METAR text: YMHB 191930Z 30020G31KT 9999 FEW030 SCT045 12/04 Q1004 RF00.0/000.0
Conditions at: YMHB (HOBART/TASMANIA , AU) observed 1930 UTC 19 August 2019
Temperature: 12.0°C (54°F)
Dewpoint: 4.0°C (39°F) [RH = 58%]
Pressure (altimeter): 29.65 inches Hg (1004.0 mb)
Winds: from the WNW (300 degrees) at 23 MPH (20 knots; 10.3 m/s)
gusting to 36 MPH (31 knots; 15.9 m/s)
Visibility: 6 or more miles (10+ km)
Ceiling: at least 12,000 feet AGL
Clouds: few clouds at 3000 feet AGL
scattered clouds at 4500 feet AGL
Weather: no significant weather observed at this time

METAR text: YMHB 191922Z 30019G31KT 9999 FEW030 SCT045 12/03 Q1004 RF00/0/000/0
Conditions at: YMHB (HOBART/TASMANIA , AU) observed 1922 UTC 19 August 2019
Temperature: 12.0°C (54°F)
Dewpoint: 3.0°C (37°F) [RH = 54%]
Pressure (altimeter): 29.65 inches Hg (1004.0 mb)
Winds: from the WNW (300 degrees) at 22 MPH (19 knots; 9.8 m/s)
gusting to 36 MPH (31 knots; 15.9 m/s)
Visibility: 6 or more miles (10+ km)
Ceiling: at least 12,000 feet AGL
Clouds: few clouds at 3000 feet AGL
scattered clouds at 4500 feet AGL
Weather: no significant weather observed at this time

METAR text: YMHB 191900Z 30021KT 9999 FEW030 SCT043 12/03 Q1004 RF00.0/000.0
Conditions at: YMHB (HOBART/TASMANIA , AU) observed 1900 UTC 19 August 2019
Temperature: 12.0°C (54°F)
Dewpoint: 3.0°C (37°F) [RH = 54%]
Pressure (altimeter): 29.65 inches Hg (1004.0 mb)
Winds: from the WNW (300 degrees) at 24 MPH (21 knots; 10.8 m/s)
Visibility: 6 or more miles (10+ km)
Ceiling: at least 12,000 feet AGL
Clouds: few clouds at 3000 feet AGL
scattered clouds at 4300 feet AGL
Weather: no significant weather observed at this time

METAR text: YMHB 191832Z 30025G37KT 9999 FEW030 SCT040 11/04 Q1004 RF00/0/000/0
Conditions at: YMHB (HOBART/TASMANIA , AU) observed 1832 UTC 19 August 2019
Temperature: 11.0°C (52°F)
Dewpoint: 4.0°C (39°F) [RH = 62%]
Pressure (altimeter): 29.65 inches Hg (1004.0 mb)
Winds: from the WNW (300 degrees) at 29 MPH (25 knots; 12.9 m/s)
gusting to 43 MPH (37 knots; 19.0 m/s)
Visibility: 6 or more miles (10+ km)
Ceiling: at least 12,000 feet AGL
Clouds: few clouds at 3000 feet AGL
scattered clouds at 4000 feet AGL
Weather: no significant weather observed at this time

METAR text: YMHB 191804Z 29024G34KT 9999 FEW030 SCT040 BKN120 12/03 Q1004
Conditions at: YMHB (HOBART/TASMANIA , AU) observed 1804 UTC 19 August 2019
Temperature: 12.0°C (54°F)
Dewpoint: 3.0°C (37°F) [RH = 54%]
Pressure (altimeter): 29.65 inches Hg (1004.0 mb)
Winds: from the WNW (290 degrees) at 28 MPH (24 knots; 12.3 m/s)
gusting to 39 MPH (34 knots; 17.5 m/s)
Visibility: 6 or more miles (10+ km)
Ceiling: 12000 feet AGL
Clouds: few clouds at 3000 feet AGL
scattered clouds at 4000 feet AGL
broken clouds at 12000 feet AGL
Weather: no significant weather observed at this time

METAR text: YMHB 191800Z 29026KT 9999 FEW030 SCT040 BKN120 12/03 Q1004
Conditions at: YMHB (HOBART/TASMANIA , AU) observed 1800 UTC 19 August 2019
Temperature: 12.0°C (54°F)
Dewpoint: 3.0°C (37°F) [RH = 54%]
Pressure (altimeter): 29.65 inches Hg (1004.0 mb)
Winds: from the WNW (290 degrees) at 30 MPH (26 knots; 13.4 m/s)
Visibility: 6 or more miles (10+ km)
Ceiling: 12000 feet AGL
Clouds: few clouds at 3000 feet AGL
scattered clouds at 4000 feet AGL
broken clouds at 12000 feet AGL
Weather: no significant weather observed at this time

METAR text: YMHB 191730Z 29027G37KT 9999 FEW030 SCT120 12/03 Q1004 RF00.0/000.0
Conditions at: YMHB (HOBART/TASMANIA , AU) observed 1730 UTC 19 August 2019
Temperature: 12.0°C (54°F)
Dewpoint: 3.0°C (37°F) [RH = 54%]
Pressure (altimeter): 29.65 inches Hg (1004.0 mb)
Winds: from the WNW (290 degrees) at 31 MPH (27 knots; 13.9 m/s)
gusting to 43 MPH (37 knots; 19.0 m/s)
Visibility: 6 or more miles (10+ km)
Ceiling: at least 12,000 feet AGL
Clouds: few clouds at 3000 feet AGL
scattered clouds at 12000 feet AGL
Weather: no significant weather observed at this time

METAR text: YMHB 191700Z 28029G42KT 9999 FEW028 SCT120 12/03 Q1004 RF00.0/000.0
Conditions at: YMHB (HOBART/TASMANIA , AU) observed 1700 UTC 19 August 2019
Temperature: 12.0°C (54°F)
Dewpoint: 3.0°C (37°F) [RH = 54%]
Pressure (altimeter): 29.65 inches Hg (1004.0 mb)
Winds: from the W (280 degrees) at 33 MPH (29 knots; 14.9 m/s)
gusting to 48 MPH (42 knots; 21.6 m/s)
Visibility: 6 or more miles (10+ km)
Ceiling: at least 12,000 feet AGL
Clouds: few clouds at 2800 feet AGL
scattered clouds at 12000 feet AGL
Weather: no significant weather observed at this time

METAR text: YMHB 191631Z 28028G38KT 9999 FEW028 SCT140 12/03 Q1004 RF00/0/000/0
Conditions at: YMHB (HOBART/TASMANIA , AU) observed 1631 UTC 19 August 2019
Temperature: 12.0°C (54°F)
Dewpoint: 3.0°C (37°F) [RH = 54%]
Pressure (altimeter): 29.65 inches Hg (1004.0 mb)
Winds: from the W (280 degrees) at 32 MPH (28 knots; 14.4 m/s)
gusting to 44 MPH (38 knots; 19.5 m/s)
Visibility: 6 or more miles (10+ km)
Ceiling: at least 12,000 feet AGL
Clouds: few clouds at 2800 feet AGL
scattered clouds at 14000 feet AGL
Weather: no significant weather observed at this time

METAR text: YMHB 191600Z 28025G36KT 9999 FEW025 SCT160 BKN270 12/03 Q1004
Conditions at: YMHB (HOBART/TASMANIA , AU) observed 1600 UTC 19 August 2019
Temperature: 12.0°C (54°F)
Dewpoint: 3.0°C (37°F) [RH = 54%]
Pressure (altimeter): 29.65 inches Hg (1004.0 mb)
Winds: from the W (280 degrees) at 29 MPH (25 knots; 12.9 m/s)
gusting to 41 MPH (36 knots; 18.5 m/s)
Visibility: 6 or more miles (10+ km)
Ceiling: 27000 feet AGL
Clouds: few clouds at 2500 feet AGL
scattered clouds at 16000 feet AGL
broken clouds at 27000 feet AGL
Weather: no significant weather observed at this time

METAR text: YMHB 191530Z 28025G35KT 9999 FEW025 SCT150 BKN270 12/03 Q1005
Conditions at: YMHB (HOBART/TASMANIA , AU) observed 1530 UTC 19 August 2019
Temperature: 12.0°C (54°F)
Dewpoint: 3.0°C (37°F) [RH = 54%]
Pressure (altimeter): 29.68 inches Hg (1005.0 mb)
Winds: from the W (280 degrees) at 29 MPH (25 knots; 12.9 m/s)
gusting to 40 MPH (35 knots; 18.0 m/s)
Visibility: 6 or more miles (10+ km)
Ceiling: 27000 feet AGL
Clouds: few clouds at 2500 feet AGL
scattered clouds at 15000 feet AGL
broken clouds at 27000 feet AGL
Weather: no significant weather observed at this time

METAR text: YMHB 191514Z 29016G26KT 9999 FEW025 SCT060 BKN150 12/03 Q1005
Conditions at: YMHB (HOBART/TASMANIA , AU) observed 1514 UTC 19 August 2019
Temperature: 12.0°C (54°F)
Dewpoint: 3.0°C (37°F) [RH = 54%]
Pressure (altimeter): 29.68 inches Hg (1005.0 mb)
Winds: from the WNW (290 degrees) at 18 MPH (16 knots; 8.2 m/s)
gusting to 30 MPH (26 knots; 13.4 m/s)
Visibility: 6 or more miles (10+ km)
Ceiling: 15000 feet AGL
Clouds: few clouds at 2500 feet AGL
scattered clouds at 6000 feet AGL
broken clouds at 15000 feet AGL
Weather: no significant weather observed at this time

METAR text: YMHB 191500Z 29013KT 9999 FEW025 SCT160 BKN210 11/03 Q1005 RF00.0/000.0
Conditions at: YMHB (HOBART/TASMANIA , AU) observed 1500 UTC 19 August 2019
Temperature: 11.0°C (52°F)
Dewpoint: 3.0°C (37°F) [RH = 58%]
Pressure (altimeter): 29.68 inches Hg (1005.0 mb)
Winds: from the WNW (290 degrees) at 15 MPH (13 knots; 6.7 m/s)
Visibility: 6 or more miles (10+ km)
Ceiling: 21000 feet AGL
Clouds: few clouds at 2500 feet AGL
scattered clouds at 16000 feet AGL
broken clouds at 21000 feet AGL
Weather: no significant weather observed at this time

METAR text: YMHB 191430Z 29012KT 9999 FEW025 SCT060 BKN160 11/03 Q1005 RF00.0/000.0
Conditions at: YMHB (HOBART/TASMANIA , AU) observed 1430 UTC 19 August 2019
Temperature: 11.0°C (52°F)
Dewpoint: 3.0°C (37°F) [RH = 58%]
Pressure (altimeter): 29.68 inches Hg (1005.0 mb)
Winds: from the WNW (290 degrees) at 14 MPH (12 knots; 6.2 m/s)
Visibility: 6 or more miles (10+ km)
Ceiling: 16000 feet AGL
Clouds: few clouds at 2500 feet AGL
scattered clouds at 6000 feet AGL
broken clouds at 16000 feet AGL
Weather: no significant weather observed at this time

METAR text: YMHB 191400Z 29011G21KT 9999 FEW025 SCT058 BKN150 11/03 Q1005
Conditions at: YMHB (HOBART/TASMANIA , AU) observed 1400 UTC 19 August 2019
Temperature: 11.0°C (52°F)
Dewpoint: 3.0°C (37°F) [RH = 58%]
Pressure (altimeter): 29.68 inches Hg (1005.0 mb)
Winds: from the WNW (290 degrees) at 13 MPH (11 knots; 5.7 m/s)
gusting to 24 MPH (21 knots; 10.8 m/s)
Visibility: 6 or more miles (10+ km)
Ceiling: 15000 feet AGL
Clouds: few clouds at 2500 feet AGL
scattered clouds at 5800 feet AGL
broken clouds at 15000 feet AGL
Weather: no significant weather observed at this time

METAR text: YMHB 191330Z 31011KT 9999 FEW025 SCT055 BKN110 11/03 Q1006 RF00.0/000.0
Conditions at: YMHB (HOBART/TASMANIA , AU) observed 1330 UTC 19 August 2019
Temperature: 11.0°C (52°F)
Dewpoint: 3.0°C (37°F) [RH = 58%]
Pressure (altimeter): 29.70 inches Hg (1006.0 mb)
Winds: from the NW (310 degrees) at 13 MPH (11 knots; 5.7 m/s)
Visibility: 6 or more miles (10+ km)
Ceiling: 11000 feet AGL
Clouds: few clouds at 2500 feet AGL
scattered clouds at 5500 feet AGL
broken clouds at 11000 feet AGL
Weather: no significant weather observed at this time

METAR text: YMHB 191300Z 33010KT 9999 -RA FEW025 BKN050 10/04 Q1006 RF00.0/000.0
Conditions at: YMHB (HOBART/TASMANIA , AU) observed 1300 UTC 19 August 2019
Temperature: 10.0°C (50°F)
Dewpoint: 4.0°C (39°F) [RH = 66%]
Pressure (altimeter): 29.70 inches Hg (1006.0 mb)
Winds: from the NNW (330 degrees) at 12 MPH (10 knots; 5.1 m/s)
Visibility: 6 or more miles (10+ km)
Ceiling: 5000 feet AGL
Clouds: few clouds at 2500 feet AGL
broken clouds at 5000 feet AGL
Weather: -RA  (light rain)

METAR text: YMHB 191230Z 33011KT 9999 FEW028 BKN047 10/04 Q1006 RF00.0/000.0
Conditions at: YMHB (HOBART/TASMANIA , AU) observed 1230 UTC 19 August 2019
Temperature: 10.0°C (50°F)
Dewpoint: 4.0°C (39°F) [RH = 66%]
Pressure (altimeter): 29.70 inches Hg (1006.0 mb)
Winds: from the NNW (330 degrees) at 13 MPH (11 knots; 5.7 m/s)
Visibility: 6 or more miles (10+ km)
Ceiling: 4700 feet AGL
Clouds: few clouds at 2800 feet AGL
broken clouds at 4700 feet AGL
Weather: no significant weather observed at this time

METAR text: YMHB 191200Z 33011KT 9999 FEW028 BKN045 10/04 Q1006 RF00.0/000.0
Conditions at: YMHB (HOBART/TASMANIA , AU) observed 1200 UTC 19 August 2019
Temperature: 10.0°C (50°F)
Dewpoint: 4.0°C (39°F) [RH = 66%]
Pressure (altimeter): 29.70 inches Hg (1006.0 mb)
Winds: from the NNW (330 degrees) at 13 MPH (11 knots; 5.7 m/s)
Visibility: 6 or more miles (10+ km)
Ceiling: 4500 feet AGL
Clouds: few clouds at 2800 feet AGL
broken clouds at 4500 feet AGL
Weather: no significant weather observed at this time

METAR text: YMHB 191130Z 33011KT 9999 FEW025 BKN045 09/04 Q1006 RF00.0/000.0
Conditions at: YMHB (HOBART/TASMANIA , AU) observed 1130 UTC 19 August 2019
Temperature: 9.0°C (48°F)
Dewpoint: 4.0°C (39°F) [RH = 71%]
Pressure (altimeter): 29.70 inches Hg (1006.0 mb)
Winds: from the NNW (330 degrees) at 13 MPH (11 knots; 5.7 m/s)
Visibility: 6 or more miles (10+ km)
Ceiling: 4500 feet AGL
Clouds: few clouds at 2500 feet AGL
broken clouds at 4500 feet AGL
Weather: no significant weather observed at this time

METAR text: YMHB 191100Z 33013KT 9999 VCSH FEW025 BKN048 08/03 Q1006 RF00.0/000.0
Conditions at: YMHB (HOBART/TASMANIA , AU) observed 1100 UTC 19 August 2019
Temperature: 8.0°C (46°F)
Dewpoint: 3.0°C (37°F) [RH = 71%]
Pressure (altimeter): 29.70 inches Hg (1006.0 mb)
Winds: from the NNW (330 degrees) at 15 MPH (13 knots; 6.7 m/s)
Visibility: 6 or more miles (10+ km)
Ceiling: 4800 feet AGL
Clouds: few clouds at 2500 feet AGL
broken clouds at 4800 feet AGL
Weather: VCSH  (showers in vicinity)

METAR text: YMHB 191030Z 33010KT 9999 FEW025 BKN050 08/03 Q1006 RF00.0/000.0
Conditions at: YMHB (HOBART/TASMANIA , AU) observed 1030 UTC 19 August 2019
Temperature: 8.0°C (46°F)
Dewpoint: 3.0°C (37°F) [RH = 71%]
Pressure (altimeter): 29.70 inches Hg (1006.0 mb)
Winds: from the NNW (330 degrees) at 12 MPH (10 knots; 5.1 m/s)
Visibility: 6 or more miles (10+ km)
Ceiling: 5000 feet AGL
Clouds: few clouds at 2500 feet AGL
broken clouds at 5000 feet AGL
Weather: no significant weather observed at this time

METAR text: YMHB 191000Z 32011KT 9999 FEW030 BKN050 BKN100 07/02 Q1006 RF00.0/000.0
Conditions at: YMHB (HOBART/TASMANIA , AU) observed 1000 UTC 19 August 2019
Temperature: 7.0°C (45°F)
Dewpoint: 2.0°C (36°F) [RH = 70%]
Pressure (altimeter): 29.70 inches Hg (1006.0 mb)
Winds: from the NW (320 degrees) at 13 MPH (11 knots; 5.7 m/s)
Visibility: 6 or more miles (10+ km)
Ceiling: 5000 feet AGL
Clouds: few clouds at 3000 feet AGL
broken clouds at 5000 feet AGL
broken clouds at 10000 feet AGL
Weather: no significant weather observed at this time

METAR text: YMHB 190930Z 33009KT 9999 FEW030 SCT047 BKN100 07/02 Q1006 RF00.0/000.0
Conditions at: YMHB (HOBART/TASMANIA , AU) observed 0930 UTC 19 August 2019
Temperature: 7.0°C (45°F)
Dewpoint: 2.0°C (36°F) [RH = 70%]
Pressure (altimeter): 29.70 inches Hg (1006.0 mb)
Winds: from the NNW (330 degrees) at 10 MPH (9 knots; 4.6 m/s)
Visibility: 6 or more miles (10+ km)
Ceiling: 10000 feet AGL
Clouds: few clouds at 3000 feet AGL
scattered clouds at 4700 feet AGL
broken clouds at 10000 feet AGL
Weather: no significant weather observed at this time

METAR text: YMHB 190900Z 32015KT 9999 VCSH FEW030 SCT043 BKN100 07/02 Q1006
Conditions at: YMHB (HOBART/TASMANIA , AU) observed 0900 UTC 19 August 2019
Temperature: 7.0°C (45°F)
Dewpoint: 2.0°C (36°F) [RH = 70%]
Pressure (altimeter): 29.70 inches Hg (1006.0 mb)
Winds: from the NW (320 degrees) at 17 MPH (15 knots; 7.7 m/s)
Visibility: 6 or more miles (10+ km)
Ceiling: 10000 feet AGL
Clouds: few clouds at 3000 feet AGL
scattered clouds at 4300 feet AGL
broken clouds at 10000 feet AGL
Weather: VCSH  (showers in vicinity)

METAR text: YMHB 190830Z 32016KT 9999 FEW030 SCT045 BKN085 07/02 Q1006 RF00.0/000.0
Conditions at: YMHB (HOBART/TASMANIA , AU) observed 0830 UTC 19 August 2019
Temperature: 7.0°C (45°F)
Dewpoint: 2.0°C (36°F) [RH = 70%]
Pressure (altimeter): 29.70 inches Hg (1006.0 mb)
Winds: from the NW (320 degrees) at 18 MPH (16 knots; 8.2 m/s)
Visibility: 6 or more miles (10+ km)
Ceiling: 8500 feet AGL
Clouds: few clouds at 3000 feet AGL
scattered clouds at 4500 feet AGL
broken clouds at 8500 feet AGL
Weather: no significant weather observed at this time

Forecast for: AMD
Text: TAF AMD YMHB 201805Z 2018/2118 29014KT 9999 -SHRA FEW020 SCT035
Forecast period: 1800 to 2100 UTC 20 August 2019
Forecast type: FROM: standard forecast or significant change
Winds: from the WNW (290 degrees) at 16 MPH (14 knots; 7.2 m/s)
Visibility: 6 or more miles 10+ km)
Ceiling: at least 12,000 feet AGL
Clouds: few clouds at 2000 feet AGL
scattered clouds at 3500 feet AGL
Weather: -SHRA  (light rain showers)
Text: FM202100 27018G30KT 9999 -SHRA FEW020 SCT035
Forecast period: 2100 to 2300 UTC 20 August 2019
Forecast type: FROM: standard forecast or significant change
Winds: from the W (270 degrees) at 21 MPH (18 knots; 9.3 m/s)
gusting to 34 MPH (30 knots; 15.4 m/s)
Visibility: 6 or more miles 10+ km)
Ceiling: at least 12,000 feet AGL
Clouds: few clouds at 2000 feet AGL
scattered clouds at 3500 feet AGL
Weather: -SHRA  (light rain showers)
Text: FM202300 25020G35KT 9999 -SHRA FEW020 SCT035
Forecast period: 2300 UTC 20 August 2019 to 0100 UTC 21 August 2019
Forecast type: FROM: standard forecast or significant change
Winds: from the WSW (250 degrees) at 23 MPH (20 knots; 10.3 m/s)
gusting to 40 MPH (35 knots; 18.0 m/s)
Visibility: 6 or more miles 10+ km)
Ceiling: at least 12,000 feet AGL
Clouds: few clouds at 2000 feet AGL
scattered clouds at 3500 feet AGL
Weather: -SHRA  (light rain showers)
Text: FM210100 25025G40KT 9999 -SHRA FEW020 SCT035
Forecast period: 0100 to 0900 UTC 21 August 2019
Forecast type: FROM: standard forecast or significant change
Winds: from the WSW (250 degrees) at 29 MPH (25 knots; 12.9 m/s)
gusting to 46 MPH (40 knots; 20.6 m/s)
Visibility: 6 or more miles 10+ km)
Ceiling: at least 12,000 feet AGL
Clouds: few clouds at 2000 feet AGL
scattered clouds at 3500 feet AGL
Weather: -SHRA  (light rain showers)
Text: FM210900 27015G25KT 9999 -SHRA SCT015 BKN025
Forecast period: 0900 to 1400 UTC 21 August 2019
Forecast type: FROM: standard forecast or significant change
Winds: from the W (270 degrees) at 17 MPH (15 knots; 7.7 m/s)
gusting to 29 MPH (25 knots; 12.9 m/s)
Visibility: 6 or more miles 10+ km)
Ceiling: 2500 feet AGL
Clouds: scattered clouds at 1500 feet AGL
broken clouds at 2500 feet AGL
Weather: -SHRA  (light rain showers)
Text: FM211400 24020G30KT 9999 -SHRA FEW015 SCT030 INTER 2110/2116 4000 SHRA BKN010
Forecast period: 1400 to 1800 UTC 21 August 2019
Forecast type: FROM: standard forecast or significant change
Winds: from the WSW (240 degrees) at 23 MPH (20 knots; 10.3 m/s)
gusting to 34 MPH (30 knots; 15.4 m/s)
Visibility: 6 or more miles 10+ km)
Ceiling: at least 12,000 feet AGL
Clouds: few clouds at 1500 feet AGL
scattered clouds at 3000 feet AGL
Weather: -SHRA  (light rain showers)
Text: PROB30 INTER 2018/2021 28020G35KT 4000 TSRA SCT015 SCT025CB
Forecast period: 1000 to 1600 UTC 21 August 2019
Forecast type: TEMPORARY: The following changes expected for less than half the time period
Visibility: 2.49 miles (4.01 km)
Ceiling: 1000 feet AGL
Clouds: broken clouds at 1000 feet AGL
Weather: SHRA  (rain showers)
Text:
Forecast period: 1800 to 2100 UTC 20 August 2019
Forecast type: TEMPORARY: The following changes expected for less than half the time period
Winds: from the W (280 degrees) at 23 MPH (20 knots; 10.3 m/s)
gusting to 40 MPH (35 knots; 18.0 m/s)
Visibility: 2.49 miles (4.01 km)
Ceiling: at least 12,000 feet AGL
Clouds: scattered clouds at 1500 feet AGL
scattered clouds at 2500 feet AGL
Weather: TSRA  (rain associated with thunderstorm(s))